Time;durP1;ratioP1;P1;durP2;ratioP2;P2;SDS_P1;SDS_P2;PMS_P1;PMS_P2;Temp;Humidity;BMP_temperature;BMP_pressure;BME280_temperature;BME280_humidity;BME280_pressure;Samples;Min_cycle;Max_cycle;Signal;HPM_P1;HPM_P2
2021/08/22 00:01:15;;;;;;;6.93;5.60;;;14.70;99.90;;;;;;5056067;28;20044;-91
2021/08/22 00:03:41;;;;;;;6.28;5.78;;;14.70;99.90;;;;;;5056146;28;20520;-89
2021/08/22 00:06:09;;;;;;;6.13;5.50;;;14.60;99.90;;;;;;5056149;28;20052;-90
2021/08/22 00:08:39;;;;;;;5.82;5.30;;;14.60;99.90;;;;;;5055963;28;20071;-92
2021/08/22 00:11:06;;;;;;;6.85;5.97;;;14.60;99.90;;;;;;5056144;28;20139;-91
2021/08/22 00:13:33;;;;;;;6.38;5.88;;;14.60;99.90;;;;;;5056118;28;20139;-92
2021/08/22 00:16:01;;;;;;;5.25;4.85;;;14.60;99.90;;;;;;5056938;28;20072;-91
2021/08/22 00:18:28;;;;;;;7.50;5.85;;;14.50;99.90;;;;;;5066108;28;20054;-92
2021/08/22 00:20:55;;;;;;;6.65;6.10;;;14.50;99.90;;;;;;5078400;28;20116;-91
2021/08/22 00:23:22;;;;;;;6.15;5.60;;;14.30;99.90;;;;;;5057629;28;20136;-92
2021/08/22 00:25:50;;;;;;;8.23;6.20;;;14.10;99.90;;;;;;5055550;28;20118;-91
2021/08/22 00:28:17;;;;;;;6.60;6.00;;;14.10;99.90;;;;;;5058723;28;20128;-91
2021/08/22 00:30:43;;;;;;;6.57;6.00;;;14.20;99.90;;;;;;5059429;28;20412;-93
2021/08/22 00:33:10;;;;;;;7.15;6.50;;;14.20;99.90;;;;;;5059512;28;20048;-92
2021/08/22 00:35:37;;;;;;;6.90;6.22;;;14.10;99.90;;;;;;5059412;28;20056;-91
2021/08/22 00:38:04;;;;;;;6.75;6.18;;;14.00;99.90;;;;;;5059430;28;20051;-91
2021/08/22 00:40:31;;;;;;;6.82;6.18;;;14.00;99.90;;;;;;5058916;28;20476;-91
2021/08/22 00:42:57;;;;;;;7.22;6.43;;;14.00;99.90;;;;;;5059460;28;20504;-92
2021/08/22 00:45:24;;;;;;;6.90;6.18;;;13.90;99.90;;;;;;5058960;28;20086;-91
2021/08/22 00:47:51;;;;;;;10.73;7.70;;;13.80;99.90;;;;;;5059017;28;20052;-91
2021/08/22 00:50:19;;;;;;;9.35;7.75;;;13.70;99.90;;;;;;5059196;28;20051;-91
2021/08/22 00:52:50;;;;;;;7.70;7.00;;;13.60;99.90;;;;;;5058981;28;20058;-92
2021/08/22 00:55:19;;;;;;;7.72;7.03;;;13.60;99.90;;;;;;5059076;28;20094;-92
2021/08/22 00:57:46;;;;;;;9.05;8.07;;;13.60;99.90;;;;;;5058817;28;20500;-91
2021/08/22 01:00:15;;;;;;;7.72;6.97;;;13.50;99.90;;;;;;5058746;28;20091;-90
2021/08/22 01:03:12;;;;;;;7.65;6.85;;;13.40;99.90;;;;;;5058858;28;20054;-91
2021/08/22 01:05:58;;;;;;;8.30;7.50;;;13.30;99.90;;;;;;5058541;28;20485;-92
2021/08/22 01:08:29;;;;;;;8.90;8.00;;;13.50;99.90;;;;;;5058488;28;20052;-92
2021/08/22 01:11:01;;;;;;;9.93;7.22;;;13.40;99.90;;;;;;5058904;28;20052;-92
2021/08/22 01:13:35;;;;;;;8.07;7.28;;;13.40;99.90;;;;;;5058782;28;20076;-92
2021/08/22 01:16:06;;;;;;;9.63;7.10;;;13.50;99.90;;;;;;5058864;28;20120;-92
2021/08/22 01:18:35;;;;;;;8.95;6.97;;;13.60;99.90;;;;;;5058625;28;20404;-92
2021/08/22 01:21:12;;;;;;;11.38;7.38;;;13.70;99.90;;;;;;5058409;28;20066;-92
2021/08/22 01:23:53;;;;;;;12.52;7.22;;;13.70;99.90;;;;;;5058747;28;20507;-92
2021/08/22 01:26:28;;;;;;;10.18;6.75;;;13.80;99.90;;;;;;5058407;28;20144;-91
2021/08/22 01:28:59;;;;;;;8.30;7.57;;;13.80;99.90;;;;;;5075766;28;20127;-91
2021/08/22 01:31:29;;;;;;;9.23;7.35;;;13.70;99.90;;;;;;5058579;28;20070;-91
2021/08/22 01:34:00;;;;;;;7.60;6.90;;;13.70;99.90;;;;;;5058253;28;20052;-92
2021/08/22 01:36:27;;;;;;;9.05;7.93;;;13.60;99.90;;;;;;5059685;28;20497;-91
2021/08/22 01:38:54;;;;;;;8.32;7.20;;;13.70;99.90;;;;;;5078562;28;20045;-92
2021/08/22 01:41:25;;;;;;;8.68;6.78;;;13.60;99.90;;;;;;5076094;28;20131;-92
2021/08/22 01:43:56;;;;;;;8.75;7.13;;;13.60;99.90;;;;;;5058066;28;20075;-91
2021/08/22 01:46:31;;;;;;;10.13;7.22;;;13.60;99.90;;;;;;5057752;28;20135;-93
2021/08/22 01:48:58;;;;;;;7.72;6.93;;;13.50;99.90;;;;;;5057951;28;20072;-91
2021/08/22 01:51:27;;;;;;;8.68;6.53;;;13.50;99.90;;;;;;5057892;28;20059;-92
2021/08/22 01:54:04;;;;;;;9.60;6.95;;;13.60;99.90;;;;;;5057996;28;20489;-92
2021/08/22 01:56:31;;;;;;;7.93;7.13;;;13.50;99.90;;;;;;5057717;28;20482;-92
2021/08/22 01:58:58;;;;;;;10.38;6.88;;;13.40;99.90;;;;;;5058120;28;20080;-92
2021/08/22 02:01:26;;;;;;;8.35;7.55;;;13.30;99.90;;;;;;5057599;28;20493;-92
2021/08/22 02:04:07;;;;;;;8.07;7.25;;;13.30;99.90;;;;;;5057701;28;20044;-93
2021/08/22 02:06:41;;;;;;;7.90;7.30;;;13.20;99.90;;;;;;5057405;28;20053;-91
2021/08/22 02:09:10;;;;;;;8.77;7.55;;;13.10;99.90;;;;;;5057911;28;20473;-92
2021/08/22 02:11:42;;;;;;;10.52;8.32;;;13.10;99.90;;;;;;5057522;28;20131;-91
2021/08/22 02:14:12;;;;;;;7.55;6.95;;;13.10;99.90;;;;;;5057288;28;20564;-91
2021/08/22 02:16:44;;;;;;;9.27;7.25;;;13.10;99.90;;;;;;5057323;28;20127;-91
2021/08/22 02:19:12;;;;;;;7.70;7.00;;;13.00;99.90;;;;;;5057410;28;20111;-91
2021/08/22 02:21:40;;;;;;;9.00;7.60;;;12.90;99.90;;;;;;5057354;28;20053;-92
2021/08/22 02:24:07;;;;;;;8.85;8.00;;;12.90;99.90;;;;;;5057561;28;20128;-92
2021/08/22 02:26:35;;;;;;;11.18;8.38;;;13.00;99.90;;;;;;5056601;28;20062;-92
2021/08/22 02:29:02;;;;;;;8.23;7.30;;;13.10;99.90;;;;;;5053546;28;20052;-92
2021/08/22 02:31:29;;;;;;;9.73;8.73;;;13.00;99.90;;;;;;5053511;28;20049;-92
2021/08/22 02:34:00;;;;;;;9.00;8.13;;;13.00;99.90;;;;;;5053789;28;20048;-91
2021/08/22 02:36:28;;;;;;;10.50;9.18;;;13.10;99.90;;;;;;5053776;28;20059;-92
2021/08/22 02:38:55;;;;;;;15.30;8.55;;;13.00;99.90;;;;;;5054600;28;20040;-91
2021/08/22 02:41:23;;;;;;;9.75;8.75;;;13.00;99.90;;;;;;5053709;28;20527;-91
2021/08/22 02:43:50;;;;;;;10.48;8.13;;;13.10;99.90;;;;;;5053633;28;20063;-92
2021/08/22 02:46:16;;;;;;;10.70;8.75;;;13.10;99.90;;;;;;5053377;28;20049;-91
2021/08/22 02:48:43;;;;;;;8.60;7.80;;;13.20;99.90;;;;;;5053506;28;20071;-92
2021/08/22 02:51:10;;;;;;;8.95;7.63;;;13.20;99.90;;;;;;5053359;28;20055;-92
2021/08/22 02:53:37;;;;;;;8.00;7.30;;;13.20;99.90;;;;;;5053894;28;20061;-92
2021/08/22 02:56:04;;;;;;;7.78;7.07;;;13.20;99.90;;;;;;5058986;28;20052;-93
2021/08/22 02:58:31;;;;;;;7.97;7.18;;;13.20;99.90;;;;;;5074446;28;20079;-92
2021/08/22 03:00:58;;;;;;;8.15;7.45;;;13.30;99.90;;;;;;5054409;28;20136;-92
2021/08/22 03:03:26;;;;;;;9.60;7.93;;;13.20;99.90;;;;;;5053443;28;20049;-92
2021/08/22 03:05:53;;;;;;;9.48;8.25;;;13.30;99.90;;;;;;5053152;28;20080;-92
2021/08/22 03:08:19;;;;;;;7.82;7.07;;;13.30;99.90;;;;;;5053003;28;20045;-91
2021/08/22 03:10:46;;;;;;;9.07;8.18;;;13.20;99.90;;;;;;5052968;28;20538;-92
2021/08/22 03:13:13;;;;;;;9.00;6.88;;;13.20;99.90;;;;;;5053050;28;20064;-92
2021/08/22 03:15:40;;;;;;;8.00;7.30;;;13.30;99.90;;;;;;5052991;28;20059;-92
2021/08/22 03:18:07;;;;;;;7.82;6.78;;;13.30;99.90;;;;;;5053168;28;20045;-92
2021/08/22 03:20:34;;;;;;;8.90;8.00;;;13.30;99.90;;;;;;5052739;28;20074;-92
2021/08/22 03:23:00;;;;;;;10.07;7.40;;;13.30;99.90;;;;;;5053045;28;20052;-92
2021/08/22 03:25:27;;;;;;;8.90;7.53;;;13.30;99.90;;;;;;5052461;28;20053;-92
2021/08/22 03:27:54;;;;;;;8.07;7.35;;;13.30;99.90;;;;;;5052830;28;20067;-92
2021/08/22 03:30:21;;;;;;;8.20;6.90;;;13.20;99.90;;;;;;5052710;28;20137;-92
2021/08/22 03:32:48;;;;;;;9.43;7.65;;;13.20;99.90;;;;;;5052811;28;20152;-92
2021/08/22 03:35:16;;;;;;;11.50;7.50;;;13.20;99.90;;;;;;5052612;28;20103;-92
2021/08/22 03:37:43;;;;;;;7.97;7.18;;;13.20;99.90;;;;;;5052731;28;20140;-92
2021/08/22 03:40:10;;;;;;;7.82;7.15;;;13.30;99.90;;;;;;5052760;28;20486;-92
2021/08/22 03:42:36;;;;;;;8.68;7.65;;;13.20;99.90;;;;;;5052243;28;20048;-92
2021/08/22 03:45:04;;;;;;;8.63;7.38;;;13.30;99.90;;;;;;5052761;28;20140;-92
2021/08/22 03:47:30;;;;;;;10.95;7.55;;;13.30;99.90;;;;;;5052450;28;20049;-92
2021/08/22 03:49:57;;;;;;;10.13;7.80;;;13.40;99.90;;;;;;5052661;28;20053;-91
2021/08/22 03:52:24;;;;;;;7.93;7.18;;;13.40;99.90;;;;;;5052558;28;20136;-91
2021/08/22 03:54:50;;;;;;;8.80;7.90;;;13.50;99.90;;;;;;5052192;28;20057;-92
2021/08/22 03:57:17;;;;;;;7.90;7.07;;;13.50;99.90;;;;;;5052371;28;20135;-92
2021/08/22 03:59:44;;;;;;;10.52;7.70;;;13.50;99.90;;;;;;5052513;28;20045;-92
2021/08/22 04:02:10;;;;;;;11.27;7.47;;;13.50;99.90;;;;;;5054336;28;20053;-92
2021/08/22 04:04:37;;;;;;;10.10;6.80;;;13.60;99.90;;;;;;5056402;28;20044;-92
2021/08/22 04:07:05;;;;;;;8.07;7.32;;;13.60;99.90;;;;;;5056584;28;20055;-91
2021/08/22 04:09:31;;;;;;;7.43;6.38;;;13.70;99.90;;;;;;5057389;28;20075;-92
2021/08/22 04:11:58;;;;;;;7.70;7.00;;;13.70;99.90;;;;;;5058031;28;20112;-91
2021/08/22 04:14:25;;;;;;;8.20;7.35;;;13.70;99.90;;;;;;5057974;28;20780;-92
2021/08/22 04:16:52;;;;;;;8.05;7.15;;;13.70;99.90;;;;;;5071705;28;20072;-92
2021/08/22 04:19:19;;;;;;;7.10;6.40;;;13.70;99.90;;;;;;5068445;28;20144;-92
2021/08/22 04:21:46;;;;;;;7.55;6.88;;;13.70;99.90;;;;;;5056243;28;20131;-92
2021/08/22 04:24:12;;;;;;;7.78;6.93;;;13.70;99.90;;;;;;5056123;28;20076;-92
2021/08/22 04:26:40;;;;;;;9.40;6.47;;;13.70;99.90;;;;;;5055991;28;20137;-92
2021/08/22 04:29:09;;;;;;;8.20;6.88;;;13.80;99.90;;;;;;5056072;28;20569;-92
2021/08/22 04:31:36;;;;;;;8.52;7.00;;;13.90;99.90;;;;;;5056320;28;20113;-92
2021/08/22 04:34:03;;;;;;;8.10;7.30;;;13.90;99.90;;;;;;5056431;28;20053;-92
2021/08/22 04:36:30;;;;;;;11.93;6.55;;;14.00;99.90;;;;;;5055976;28;20164;-92
2021/08/22 04:38:56;;;;;;;6.90;6.25;;;14.10;99.90;;;;;;5056142;28;20124;-92
2021/08/22 04:41:23;;;;;;;6.57;5.97;;;14.10;99.90;;;;;;5055850;28;20133;-93
2021/08/22 04:43:52;;;;;;;6.88;6.10;;;14.20;99.90;;;;;;5055833;28;20136;-92
2021/08/22 04:46:22;;;;;;;6.38;5.68;;;14.20;99.90;;;;;;5055783;28;20072;-92
2021/08/22 04:48:49;;;;;;;7.35;6.28;;;14.30;99.90;;;;;;5055859;28;20053;-92
2021/08/22 04:51:16;;;;;;;6.57;5.88;;;14.30;99.90;;;;;;5055953;28;20127;-91
2021/08/22 04:53:43;;;;;;;8.27;6.30;;;14.20;99.90;;;;;;5056026;28;20044;-91
2021/08/22 04:56:09;;;;;;;6.93;6.22;;;14.30;99.90;;;;;;5055943;28;20407;-91
2021/08/22 04:58:37;;;;;;;10.25;6.43;;;14.30;99.90;;;;;;5056978;28;20056;-92
2021/08/22 05:01:03;;;;;;;9.07;6.95;;;14.40;99.90;;;;;;5055754;28;20460;-91
2021/08/22 05:03:31;;;;;;;8.88;6.30;;;14.40;99.90;;;;;;5055695;28;20045;-91
2021/08/22 05:05:58;;;;;;;9.77;6.32;;;14.40;99.90;;;;;;5055562;28;20073;-92
2021/08/22 05:08:25;;;;;;;18.40;6.32;;;14.50;99.90;;;;;;5055543;28;20053;-91
2021/08/22 05:10:54;;;;;;;6.85;6.13;;;14.60;99.90;;;;;;5055610;28;20405;-91
2021/08/22 05:13:22;;;;;;;8.02;5.60;;;14.80;99.90;;;;;;5055688;28;20508;-91
2021/08/22 05:15:51;;;;;;;8.45;5.32;;;14.90;99.90;;;;;;5055371;28;20565;-91
2021/08/22 05:18:18;;;;;;;9.75;5.60;;;15.00;99.90;;;;;;5055661;28;20486;-91
2021/08/22 05:20:45;;;;;;;7.50;5.65;;;15.00;99.90;;;;;;5056385;28;20128;-92
2021/08/22 05:23:12;;;;;;;7.95;5.65;;;15.10;99.90;;;;;;5055138;28;20129;-93
2021/08/22 05:25:38;;;;;;;8.68;5.72;;;15.10;99.90;;;;;;5056002;28;20041;-91
2021/08/22 05:28:05;;;;;;;8.25;5.13;;;15.10;99.90;;;;;;5055332;28;20144;-89
2021/08/22 05:30:32;;;;;;;7.90;5.35;;;15.20;99.90;;;;;;5056094;28;20080;-92
2021/08/22 05:32:59;;;;;;;6.70;5.20;;;15.20;99.90;;;;;;5057902;28;20056;-91
2021/08/22 05:35:26;;;;;;;4.97;4.57;;;15.20;99.90;;;;;;5068897;28;20116;-91
2021/08/22 05:37:52;;;;;;;5.22;4.80;;;15.30;99.90;;;;;;5068039;28;20059;-92
2021/08/22 05:40:20;;;;;;;6.40;5.80;;;15.30;99.90;;;;;;5054772;28;20059;-92
2021/08/22 05:42:46;;;;;;;5.25;4.60;;;15.30;99.90;;;;;;5054737;28;20132;-90
2021/08/22 05:45:13;;;;;;;5.68;5.00;;;15.40;99.90;;;;;;5055557;28;20140;-90
2021/08/22 05:47:40;;;;;;;9.30;5.25;;;15.60;99.90;;;;;;5055067;28;20454;-89
2021/08/22 05:50:07;;;;;;;8.38;5.28;;;15.70;99.90;;;;;;5054790;28;20454;-89
2021/08/22 05:52:37;;;;;;;4.93;4.57;;;15.80;99.90;;;;;;5054736;28;20485;-91
2021/08/22 05:55:09;;;;;;;5.18;4.78;;;16.00;99.90;;;;;;5054760;28;20045;-89
2021/08/22 05:57:36;;;;;;;5.80;5.22;;;16.00;99.90;;;;;;5054663;28;20118;-91
2021/08/22 06:00:06;;;;;;;6.68;4.60;;;16.00;99.90;;;;;;5054398;28;20059;-89
2021/08/22 06:02:36;;;;;;;5.60;5.10;;;16.10;99.90;;;;;;5054264;28;20068;-92
2021/08/22 06:05:07;;;;;;;4.60;4.20;;;16.20;99.90;;;;;;5054557;28;20501;-91
2021/08/22 06:07:35;;;;;;;5.57;4.70;;;16.40;99.90;;;;;;5054333;28;20055;-91
2021/08/22 06:10:06;;;;;;;6.63;4.78;;;16.40;99.90;;;;;;5054600;28;20482;-90
2021/08/22 06:12:33;;;;;;;9.07;4.78;;;16.50;99.90;;;;;;5054685;28;20140;-91
2021/08/22 06:15:00;;;;;;;23.55;4.65;;;16.60;99.90;;;;;;5055037;28;20084;-92
2021/08/22 06:17:27;;;;;;;4.53;4.13;;;16.60;99.90;;;;;;5054269;28;20064;-92
2021/08/22 06:19:54;;;;;;;9.07;4.60;;;16.70;99.90;;;;;;5054223;28;20056;-92
2021/08/22 06:22:20;;;;;;;4.57;4.28;;;16.80;99.90;;;;;;5054019;28;20131;-92
2021/08/22 06:24:47;;;;;;;4.88;4.47;;;16.80;99.90;;;;;;5053494;28;20131;-91
2021/08/22 06:27:14;;;;;;;13.75;8.82;;;17.00;99.90;;;;;;5053746;28;20056;-92
2021/08/22 06:29:41;;;;;;;19.58;13.52;;;17.10;99.90;;;;;;5054083;28;20095;-92
2021/08/22 06:32:07;;;;;;;30.98;18.58;;;17.20;99.90;;;;;;5053817;28;20077;-91
2021/08/22 06:34:34;;;;;;;24.67;17.85;;;17.40;99.90;;;;;;5053574;28;20057;-92
2021/08/22 06:37:01;;;;;;;15.18;8.32;;;17.60;99.90;;;;;;5053604;28;20053;-91
2021/08/22 06:39:28;;;;;;;17.70;11.50;;;17.70;99.90;;;;;;5053428;28;20136;-90
2021/08/22 06:41:54;;;;;;;15.23;6.75;;;18.00;99.90;;;;;;5052255;28;20067;-90
2021/08/22 06:44:22;;;;;;;15.10;6.50;;;18.00;99.90;;;;;;5052991;28;20142;-90
2021/08/22 06:46:48;;;;;;;12.98;7.28;;;18.20;99.90;;;;;;5053183;28;20132;-90
2021/08/22 06:49:15;;;;;;;5.57;5.07;;;18.60;99.90;;;;;;5053471;28;20056;-89
2021/08/22 06:51:41;;;;;;;4.20;3.80;;;18.90;99.90;;;;;;5054589;28;20049;-89
2021/08/22 06:54:08;;;;;;;3.55;3.20;;;19.20;99.90;;;;;;5069185;28;20056;-92
2021/08/22 06:56:36;;;;;;;3.78;3.50;;;19.30;99.90;;;;;;5074229;28;20037;-93
2021/08/22 06:59:02;;;;;;;5.28;3.00;;;19.30;99.90;;;;;;5052741;28;20076;-88
2021/08/22 07:01:29;;;;;;;3.33;3.03;;;19.50;99.90;;;;;;5052847;28;20561;-88
2021/08/22 07:03:57;;;;;;;4.55;3.28;;;19.50;99.90;;;;;;5052879;28;20505;-89
2021/08/22 07:06:24;;;;;;;3.55;3.30;;;19.60;99.90;;;;;;5052444;28;20060;-88
2021/08/22 07:08:51;;;;;;;3.78;3.13;;;19.70;99.90;;;;;;5052930;28;20049;-89
2021/08/22 07:11:18;;;;;;;3.13;2.83;;;19.80;99.90;;;;;;5053145;28;20128;-90
2021/08/22 07:13:44;;;;;;;4.30;2.92;;;19.90;99.90;;;;;;5053712;28;20049;-89
2021/08/22 07:16:11;;;;;;;3.17;2.88;;;20.00;99.90;;;;;;5053465;28;20489;-89
2021/08/22 07:18:38;;;;;;;3.17;2.90;;;20.20;99.90;;;;;;5055303;28;20045;-89
2021/08/22 07:21:06;;;;;;;3.20;3.00;;;20.50;99.90;;;;;;5053914;28;20059;-89
2021/08/22 07:23:33;;;;;;;3.08;2.88;;;20.80;99.90;;;;;;5052772;28;20049;-91
2021/08/22 07:26:00;;;;;;;2.70;2.60;;;20.80;99.90;;;;;;5053629;28;20566;-90
2021/08/22 07:28:27;;;;;;;2.97;2.78;;;20.60;99.90;;;;;;5052573;28;20139;-88
2021/08/22 07:30:54;;;;;;;3.25;2.95;;;20.50;99.90;;;;;;5053043;28;20409;-86
2021/08/22 07:33:21;;;;;;;5.82;2.63;;;20.60;99.90;;;;;;5053391;28;20131;-92
2021/08/22 07:35:48;;;;;;;4.90;3.33;;;20.60;99.90;;;;;;5052362;28;20049;-93
2021/08/22 07:38:16;;;;;;;3.55;3.25;;;20.50;99.90;;;;;;5052757;28;20132;-88
2021/08/22 07:40:42;;;;;;;4.22;3.03;;;20.50;99.90;;;;;;5052659;28;20045;-88
2021/08/22 07:43:09;;;;;;;4.90;3.30;;;20.60;99.90;;;;;;5052593;28;20053;-87
2021/08/22 07:45:36;;;;;;;3.13;2.92;;;20.60;99.90;;;;;;5052529;28;20049;-88
2021/08/22 07:48:03;;;;;;;4.50;3.47;;;20.70;99.90;;;;;;5052194;28;20136;-88
2021/08/22 07:50:29;;;;;;;3.65;3.00;;;20.90;99.90;;;;;;5052231;28;20059;-89
2021/08/22 07:52:57;;;;;;;3.55;3.15;;;21.00;99.90;;;;;;5052315;28;20112;-89
2021/08/22 07:55:24;;;;;;;4.85;3.15;;;21.10;99.90;;;;;;5052472;28;20497;-89
2021/08/22 07:57:51;;;;;;;3.15;2.95;;;21.10;99.90;;;;;;5052529;28;20053;-88
2021/08/22 08:00:18;;;;;;;2.88;2.65;;;21.20;99.90;;;;;;5052260;28;20059;-92
2021/08/22 08:02:45;;;;;;;4.35;3.28;;;21.30;99.90;;;;;;5052101;28;20136;-88
2021/08/22 08:05:12;;;;;;;3.33;3.13;;;21.40;99.90;;;;;;5035587;28;20051;-87
2021/08/22 08:07:39;;;;;;;3.35;3.13;;;21.50;99.90;;;;;;5052547;28;20141;-89
2021/08/22 08:10:12;;;;;;;3.60;2.95;;;21.60;99.90;;;;;;5052640;28;20123;-93
2021/08/22 08:12:39;;;;;;;4.25;3.00;;;21.80;99.90;;;;;;5053510;28;20045;-91
2021/08/22 08:15:06;;;;;;;3.30;3.00;;;21.80;99.90;;;;;;5055978;28;20141;-87
2021/08/22 08:17:32;;;;;;;9.35;3.35;;;21.80;99.90;;;;;;5054339;28;20500;-89
2021/08/22 08:19:59;;;;;;;3.60;2.92;;;21.80;99.90;;;;;;5052795;28;20053;-88
2021/08/22 08:22:26;;;;;;;5.22;3.20;;;21.80;99.90;;;;;;5052218;28;20144;-89
2021/08/22 08:24:53;;;;;;;3.45;3.20;;;21.90;99.90;;;;;;5052337;28;20053;-88
2021/08/22 08:27:22;;;;;;;5.07;3.13;;;22.00;99.90;;;;;;5052390;28;20056;-89
2021/08/22 08:29:50;;;;;;;3.70;3.40;;;21.80;99.90;;;;;;5052780;28;20144;-88
2021/08/22 08:32:17;;;;;;;3.42;3.22;;;21.90;99.90;;;;;;5052529;28;20049;-88
2021/08/22 08:34:44;;;;;;;3.88;3.55;;;21.80;99.90;;;;;;5052960;28;20498;-92
2021/08/22 08:37:11;;;;;;;4.70;3.35;;;21.80;99.90;;;;;;5052938;28;20047;-90
2021/08/22 08:39:37;;;;;;;4.45;3.67;;;21.60;99.90;;;;;;5052883;28;20057;-88
2021/08/22 08:42:23;;;;;;;5.03;3.92;;;21.60;99.90;;;;;;5052483;28;20397;-88
2021/08/22 08:44:54;;;;;;;4.03;3.50;;;21.70;99.90;;;;;;5051799;28;20071;-89
2021/08/22 08:47:23;;;;;;;3.88;3.55;;;21.80;99.90;;;;;;5053712;28;20478;-87
2021/08/22 08:50:04;;;;;;;4.50;4.20;;;21.80;99.90;;;;;;5056597;28;20148;-90
2021/08/22 08:52:48;;;;;;;4.22;3.60;;;21.90;99.90;;;;;;5056249;28;20052;-91
2021/08/22 08:55:31;;;;;;;5.63;3.75;;;22.10;99.90;;;;;;5056026;28;20057;-88
2021/08/22 08:57:59;;;;;;;3.80;3.53;;;21.90;99.90;;;;;;5055913;28;20083;-88
2021/08/22 09:00:36;;;;;;;4.45;3.72;;;22.00;99.90;;;;;;5055524;28;20048;-88
2021/08/22 09:03:04;;;;;;;4.57;3.80;;;22.30;99.90;;;;;;5055459;28;20075;-88
2021/08/22 09:05:51;;;;;;;4.25;3.90;;;22.40;99.90;;;;;;5055407;28;20056;-89
2021/08/22 09:08:56;;;;;;;5.03;4.30;;;22.40;99.90;;;;;;5055011;28;20136;-88
2021/08/22 09:12:00;;;;;;;4.20;3.80;;;22.40;99.90;;;;;;5054987;28;20131;-90
2021/08/22 09:14:36;;;;;;;;;;;22.50;99.90;;;;;;5055439;28;20135;-88
2021/08/22 09:17:40;;;;;;;3.95;3.65;;;22.70;99.90;;;;;;5055209;28;20007;-88
2021/08/22 09:20:26;;;;;;;4.10;3.70;;;23.20;99.90;;;;;;5054887;28;20131;-88
2021/08/22 09:23:11;;;;;;;4.20;3.80;;;23.30;99.90;;;;;;5054851;28;20045;-88
2021/08/22 09:26:19;;;;;;;5.03;3.65;;;23.30;99.90;;;;;;5055024;28;20053;-88
2021/08/22 09:29:24;;;;;;;4.50;4.10;;;23.60;99.90;;;;;;5054773;28;20136;-87
2021/08/22 09:32:21;;;;;;;3.70;3.50;;;23.70;99.90;;;;;;5055368;28;20048;-88
2021/08/22 09:35:20;;;;;;;3.70;3.40;;;23.70;99.90;;;;;;5058585;28;20041;-90
2021/08/22 09:38:16;;;;;;;3.45;3.03;;;24.30;99.90;;;;;;5058371;28;20128;-88
2021/08/22 09:41:01;;;;;;;3.10;2.90;;;25.30;99.90;;;;;;5003644;28;20145;-90
2021/08/22 09:44:06;;;;;;;3.20;3.00;;;25.80;99.90;;;;;;5056960;28;20080;-88
2021/08/22 09:46:41;;;;;;;;;;;26.00;99.90;;;;;;5054876;28;20507;-87
2021/08/22 09:49:46;;;;;;;3.97;3.67;;;26.40;99.90;;;;;;5054617;28;19971;-89
2021/08/22 09:52:37;;;;;;;3.65;3.10;;;26.00;99.90;;;;;;5054851;28;20067;-89
2021/08/22 09:55:42;;;;;;;3.90;3.60;;;26.00;99.90;;;;;;5054212;28;20045;-89
2021/08/22 09:58:27;;;;;;;;;;;26.30;99.90;;;;;;5053801;28;20053;-88
2021/08/22 10:01:15;;;;;;;2.83;2.72;;;26.10;99.90;;;;;;5053881;28;20277;-92
2021/08/22 10:04:01;;;;;;;3.53;3.22;;;26.00;99.90;;;;;;5054273;28;20045;-89
2021/08/22 10:06:45;;;;;;;3.63;3.33;;;25.70;99.90;;;;;;5054255;28;20570;-93
2021/08/22 10:09:43;;;;;;;3.80;3.30;;;25.50;99.90;;;;;;5054441;28;20505;-88
2021/08/22 10:12:10;;;;;;;5.63;3.10;;;25.70;99.90;;;;;;5054322;28;20068;-88
2021/08/22 10:14:38;;;;;;;3.63;3.33;;;25.50;99.90;;;;;;5054158;28;20053;-88
2021/08/22 10:17:07;;;;;;;3.03;2.83;;;25.50;99.90;;;;;;5054112;28;20513;-88
2021/08/22 10:19:35;;;;;;;3.30;3.10;;;26.10;99.90;;;;;;5053906;28;20481;-89
2021/08/22 10:22:24;;;;;;;3.50;3.20;;;26.40;99.90;;;;;;5053805;28;20131;-89
2021/08/22 10:24:57;;;;;;;3.38;3.13;;;27.00;99.90;;;;;;5054297;28;20045;-88
2021/08/22 10:27:30;;;;;;;3.25;3.05;;;27.20;99.90;;;;;;5053931;28;20061;-88
2021/08/22 10:30:02;;;;;;;7.22;3.33;;;27.30;99.90;;;;;;5053988;28;20052;-89
2021/08/22 10:32:58;;;;;;;3.63;3.13;;;26.80;99.90;;;;;;5053917;28;20087;-89
2021/08/22 10:35:28;;;;;;;3.20;3.00;;;27.00;99.90;;;;;;5047249;28;20074;-88
2021/08/22 10:37:55;;;;;;;3.50;3.20;;;27.10;99.90;;;;;;5053931;28;20045;-89
2021/08/22 10:40:25;;;;;;;3.75;3.15;;;27.20;99.90;;;;;;5053724;28;20053;-88
2021/08/22 10:43:04;;;;;;;3.15;2.95;;;27.00;99.90;;;;;;5053661;28;20049;-87
2021/08/22 10:45:40;;;;;;;3.15;2.95;;;26.80;99.90;;;;;;5053557;28;20052;-88
2021/08/22 10:48:08;;;;;;;3.45;3.22;;;26.30;99.90;;;;;;5053769;28;20486;-88
2021/08/22 10:50:56;;;;;;;3.22;2.92;;;26.40;99.90;;;;;;5053520;28;20409;-88
2021/08/22 10:53:30;;;;;;;3.80;2.80;;;26.40;99.90;;;;;;5054389;28;20156;-88
2021/08/22 10:55:58;;;;;;;2.95;2.75;;;26.00;99.90;;;;;;5053948;28;20052;-88
2021/08/22 10:58:56;;;;;;;3.72;2.92;;;25.50;99.90;;;;;;5053120;28;20049;-87
2021/08/22 11:01:23;;;;;;;4.22;2.85;;;25.20;99.90;;;;;;5053150;28;20049;-88
2021/08/22 11:04:08;;;;;;;3.83;3.15;;;25.00;99.90;;;;;;5052892;28;20080;-87
2021/08/22 11:07:05;;;;;;;3.22;2.97;;;24.90;99.90;;;;;;5052925;28;20059;-90
2021/08/22 11:09:45;;;;;;;3.30;3.10;;;24.80;99.90;;;;;;5052786;28;20127;-88
2021/08/22 11:12:31;;;;;;;2.80;2.60;;;24.60;99.90;;;;;;5052600;28;20219;-90
2021/08/22 11:15:00;;;;;;;3.30;3.00;;;24.30;99.90;;;;;;5053173;28;20426;-90
2021/08/22 11:17:27;;;;;;;3.20;3.00;;;24.00;99.90;;;;;;5052975;28;20049;-87
2021/08/22 11:20:10;;;;;;;3.75;3.45;;;24.00;99.90;;;;;;5053032;28;20052;-88
2021/08/22 11:22:37;;;;;;;3.22;2.97;;;23.90;99.90;;;;;;5052440;28;20049;-87
2021/08/22 11:25:07;;;;;;;6.57;3.50;;;24.10;99.90;;;;;;5053154;28;20403;-88
2021/08/22 11:27:34;;;;;;;3.35;3.15;;;24.10;99.90;;;;;;5052828;28;20053;-89
2021/08/22 11:30:08;;;;;;;5.65;3.28;;;24.00;99.90;;;;;;5053063;28;20060;-88
2021/08/22 11:32:36;;;;;;;3.15;2.92;;;24.10;99.90;;;;;;5052480;28;20415;-88
2021/08/22 11:35:10;;;;;;;3.47;3.17;;;24.50;99.90;;;;;;5052557;28;20404;-88
2021/08/22 11:37:39;;;;;;;3.88;3.45;;;24.70;99.90;;;;;;5052767;28;20049;-87
2021/08/22 11:40:09;;;;;;;3.13;2.92;;;24.90;99.90;;;;;;5052397;28;20059;-87
2021/08/22 11:42:37;;;;;;;3.47;3.28;;;24.90;99.90;;;;;;5052498;28;20045;-87
2021/08/22 11:45:12;;;;;;;3.53;3.22;;;25.00;99.90;;;;;;5052178;28;20511;-88
2021/08/22 11:47:39;;;;;;;3.30;3.10;;;25.10;99.90;;;;;;5052452;28;20053;-87
2021/08/22 11:50:09;;;;;;;3.95;3.30;;;25.30;99.90;;;;;;5052490;28;20071;-88
2021/08/22 11:52:38;;;;;;;4.18;3.40;;;25.30;99.90;;;;;;5052519;28;20049;-88
2021/08/22 11:55:06;;;;;;;3.60;3.30;;;25.30;99.90;;;;;;5052481;28;20056;-88
2021/08/22 11:57:34;;;;;;;3.78;3.47;;;25.20;99.90;;;;;;5052486;28;20052;-87
2021/08/22 12:00:29;;;;;;;3.40;3.10;;;25.00;99.90;;;;;;5052597;28;20053;-88
2021/08/22 12:03:02;;;;;;;4.30;3.90;;;24.80;99.90;;;;;;5051309;28;20077;-87
2021/08/22 12:05:32;;;;;;;3.63;3.33;;;24.60;99.90;;;;;;5053728;28;20045;-88
2021/08/22 12:08:08;;;;;;;3.30;3.10;;;24.40;99.90;;;;;;5052826;28;20128;-88
2021/08/22 12:10:40;;;;;;;3.80;3.50;;;24.20;99.90;;;;;;5052203;28;20545;-88
2021/08/22 12:13:18;;;;;;;4.28;3.67;;;24.10;99.90;;;;;;5053424;28;20049;-88
2021/08/22 12:15:50;;;;;;;3.60;3.30;;;24.20;99.90;;;;;;5052910;28;20079;-87
2021/08/22 12:18:30;;;;;;;3.70;3.40;;;24.30;99.90;;;;;;5051769;28;20049;-88
2021/08/22 12:21:06;;;;;;;3.42;3.13;;;24.40;99.90;;;;;;5052061;28;20515;-88
2021/08/22 12:23:35;;;;;;;3.95;3.60;;;24.40;99.90;;;;;;5054144;28;20045;-87
2021/08/22 12:26:18;;;;;;;3.45;3.22;;;24.40;99.90;;;;;;5055838;28;20052;-88
2021/08/22 12:28:45;;;;;;;3.87;3.43;;;24.30;99.90;;;;;;5055581;28;20063;-88
2021/08/22 12:31:13;;;;;;;3.58;3.38;;;24.30;99.90;;;;;;5055632;28;20040;-88
2021/08/22 12:33:43;;;;;;;3.45;3.25;;;24.40;99.90;;;;;;5055858;28;20150;-89
2021/08/22 12:36:19;;;;;;;4.00;3.70;;;24.50;99.90;;;;;;5056687;28;20144;-88
2021/08/22 12:38:51;;;;;;;7.65;3.90;;;24.50;99.90;;;;;;5055889;28;20095;-88
2021/08/22 12:41:37;;;;;;;4.28;3.92;;;24.50;99.90;;;;;;5055632;28;20131;-88
2021/08/22 12:44:06;;;;;;;10.38;6.60;;;24.40;99.90;;;;;;5055402;28;20049;-88
2021/08/22 12:46:35;;;;;;;4.78;4.40;;;24.30;99.90;;;;;;5055156;28;20051;-88
2021/08/22 12:49:03;;;;;;;4.03;3.60;;;24.20;99.90;;;;;;5055537;28;20052;-87
2021/08/22 12:51:30;;;;;;;4.45;3.45;;;24.30;99.90;;;;;;5055570;28;20490;-87
2021/08/22 12:53:58;;;;;;;4.15;3.85;;;24.30;99.90;;;;;;5055169;28;20084;-87
2021/08/22 12:56:25;;;;;;;3.60;3.35;;;24.20;99.90;;;;;;5055030;28;20049;-85
2021/08/22 12:58:53;;;;;;;3.38;3.17;;;24.00;99.90;;;;;;5055671;28;20084;-88
2021/08/22 13:01:24;;;;;;;3.85;3.55;;;23.90;99.90;;;;;;5055557;28;20381;-88
2021/08/22 13:03:56;;;;;;;3.88;3.58;;;23.80;99.90;;;;;;5055305;28;20080;-89
2021/08/22 13:06:24;;;;;;;3.63;3.38;;;23.70;99.90;;;;;;5055126;28;20478;-87